Language selection

Weather shortcuts

Northumberland Strait: Past 24 Hour Conditions

 

West Chedabucto Bay - 44489

02:00 PM ADT 26 May 2024Buoy position: 45.49N 61.14W
Disclaimer

This table is a summary of hourly weather conditions for the past 24 hours.
Please note that these observations might not always be representative of weather conditions over their associated marine area.

Date / Time
(ADT)
Wind(knots) Wave height(m) Wave period(s) Pressure(kPa) Air tempC) Water tempC)
26 May 2024
14:00 S 4 gusts 5 0.08 4.2 101.8 11 11
13:00 S 5 gusts 6 0.08 4.0 101.8 10 10
12:00 SSW 3 gusts 9 0.09 4.7 101.8 11 10
11:00 SW 3 gusts 3 0.08 4.9 101.7 10 9
10:00 SW 2 gusts 2 0.09 4.3 101.7 9 8
9:00 NNE 5 gusts 6 0.10 3.1 101.6 8 8
8:00 NNE 9 gusts 10 0.15 2.4 101.6 7 7
7:00 NNE 9 gusts 13 0.13 2.7 101.5 7 7
6:00 N 8 gusts 9 0.13 2.7 101.5 7 7
5:00 N 8 gusts 10 0.16 2.3 101.4 7 7
4:00 N 10 gusts 11 0.18 2.3 101.3 7 7
3:00 N 13 gusts 16 0.29 2.2 101.3 8 7
2:00 N 14 gusts 17 0.31 2.4 101.2 7 7
1:00 N 16 gusts 19 0.31 2.3 101.2 8 7
0:00 NNW 16 gusts 20 0.30 2.4 101.2 8 8
25 May 2024
23:00 N 16 gusts 21 0.34 2.5 101.1 8 8
22:00 N 14 gusts 17 0.24 2.3 101.0 8 8
21:00 N 13 gusts 19 0.30 2.6 101.0 9 8
20:00 NNW 14 gusts 16 0.44 2.7 100.9 9 8
19:00 NNW 17 gusts 22 0.43 2.6 100.8 10 8
18:00 NNW 17 gusts 19 0.32 2.5 100.7 10 8
17:00 NNW 18 gusts 21 0.38 2.6 100.7 10 8
16:00 NNW 21 gusts 24 0.41 2.5 100.7 11 9
15:00 NNW 18 gusts 21 0.39 2.6 100.6 11 9
14:00 NNW 15 gusts 19 0.48 2.7 100.6 11 9

Zoom-in to make a selection

Map of Atlantic - Newfoundland marine weather areas Banquereau - 44139 East Chedabucto Bay – 44488 West Chedabucto Bay – 44489 Blanc-Sablon Airport Cap Whittle Chevery Natashquan Airport Heath Point Îles de la Madeleine Airport Miscou Island Eskasoni (First Nations) Grand Étang Ingonish Beach North Mountain St.Paul Island J.A. Douglas McCurdy Sydney Airport Charlottetown Airport East Point North Cape Argentia Berry Hill Bonavista Burgeo Cape Race Corner Brook Daniel's Harbour Englee Ferolle Point La Scie Port aux Basques Sagona Island St. Anthony Airport St. John's Int'l Airport St. Lawrence Stephenville Airport Twillingate Winterland Branch Hill Wreckhouse Grates Cove Pool's Island Marticot Island Long Pond Cartwright Airport Mary's Harbour
Legend:
buoy Buoy
land station Land Station

Atlantic - Newfoundland Area

Another Region

Features

New Predicting and Alerting Coastal Flooding Program

Find out about coastal flooding coverage, forecasts and warnings in your region

Date modified: